METAR AND TAF INFORMATION
METAR FOR SBCP
ADDS - METARS form results

(0600 UTC 23 May 2019)
Data provider http://aviationweather.gov/metar/data/
 
Forecast for: SBCP (CAMPOS/BARTOLOME, BR)
Text: TAF SBCP 222100Z 2300/2312 01005KT CAVOK TN22/2308Z TX25/2312Z RMK PFV
Forecast period: 0000 to 1200 UTC 23 May 2019
Forecast type: FROM: standard forecast or significant change
Winds: from the N (10 degrees) at 6 MPH (5 knots; 2.6 m/s)
Visibility: 6 or more miles 10+ km)
Ceiling: unknown
Clouds: missing
Weather: no significant weather forecast for this period

 AIRPORT MAP

 RUNWAY INFORMATION
Runway 7 Runway length 5066 ft Runway width 148 ft
Runway elevation 0 ft Runway displaced threshold 0 ft Runway heading 0
Runway 25 Runway length 5066 ft Runway width 148 ft
Runway elevation 0 ft Runway displaced threshold 0 ft Runway heading 0

 AIRPORT FREQUENCIES
Type AFIS Name CAMPOS RDO Frequency 125.7 MHZ

 AIRPORT NEAR NAVIGATION AIDS
Type NDB Name Campos Frequency 225 KHZ



Powered by Virtual Airlines Manager [v2.6.2]